sensor_id;sensor_type;location;lat;lon;timestamp;P1;durP1;ratioP1;P2;durP2;ratioP2
24897;SDS011;12957;49.434;8.684;2023-11-25T00:00:58;4.43;;;1.20;;
24897;SDS011;12957;49.434;8.684;2023-11-25T00:03:23;5.17;;;1.63;;
24897;SDS011;12957;49.434;8.684;2023-11-25T00:05:49;3.60;;;1.10;;
24897;SDS011;12957;49.434;8.684;2023-11-25T00:08:14;2.37;;;1.13;;
24897;SDS011;12957;49.434;8.684;2023-11-25T00:10:40;3.33;;;1.03;;
24897;SDS011;12957;49.434;8.684;2023-11-25T00:13:06;4.27;;;1.20;;
24897;SDS011;12957;49.434;8.684;2023-11-25T00:15:31;7.53;;;1.60;;
24897;SDS011;12957;49.434;8.684;2023-11-25T00:17:57;3.73;;;1.00;;
24897;SDS011;12957;49.434;8.684;2023-11-25T00:20:23;6.23;;;1.40;;
24897;SDS011;12957;49.434;8.684;2023-11-25T00:22:50;5.50;;;1.40;;
24897;SDS011;12957;49.434;8.684;2023-11-25T00:25:17;3.80;;;1.00;;
24897;SDS011;12957;49.434;8.684;2023-11-25T00:27:43;3.53;;;1.20;;
24897;SDS011;12957;49.434;8.684;2023-11-25T00:30:11;2.93;;;1.30;;
24897;SDS011;12957;49.434;8.684;2023-11-25T00:32:37;5.93;;;1.30;;
24897;SDS011;12957;49.434;8.684;2023-11-25T00:35:03;5.30;;;1.50;;
24897;SDS011;12957;49.434;8.684;2023-11-25T00:37:30;5.27;;;1.13;;
24897;SDS011;12957;49.434;8.684;2023-11-25T00:39:56;3.30;;;1.30;;
24897;SDS011;12957;49.434;8.684;2023-11-25T00:42:23;3.63;;;1.50;;
24897;SDS011;12957;49.434;8.684;2023-11-25T00:44:48;3.60;;;1.20;;
24897;SDS011;12957;49.434;8.684;2023-11-25T00:47:14;4.40;;;1.10;;
24897;SDS011;12957;49.434;8.684;2023-11-25T00:49:40;3.07;;;1.30;;
24897;SDS011;12957;49.434;8.684;2023-11-25T00:52:06;5.37;;;1.73;;
24897;SDS011;12957;49.434;8.684;2023-11-25T00:54:32;5.13;;;1.30;;
24897;SDS011;12957;49.434;8.684;2023-11-25T00:56:59;5.10;;;1.50;;
24897;SDS011;12957;49.434;8.684;2023-11-25T00:59:26;5.97;;;1.40;;
24897;SDS011;12957;49.434;8.684;2023-11-25T01:01:51;3.13;;;1.67;;
24897;SDS011;12957;49.434;8.684;2023-11-25T01:04:17;3.43;;;1.80;;
24897;SDS011;12957;49.434;8.684;2023-11-25T01:06:46;5.57;;;1.70;;
24897;SDS011;12957;49.434;8.684;2023-11-25T01:09:12;4.87;;;1.23;;
24897;SDS011;12957;49.434;8.684;2023-11-25T01:11:40;5.17;;;1.53;;
24897;SDS011;12957;49.434;8.684;2023-11-25T01:14:06;5.70;;;1.43;;
24897;SDS011;12957;49.434;8.684;2023-11-25T01:16:33;3.40;;;1.50;;
24897;SDS011;12957;49.434;8.684;2023-11-25T01:18:59;1.73;;;1.40;;
24897;SDS011;12957;49.434;8.684;2023-11-25T01:21:24;6.70;;;1.53;;
24897;SDS011;12957;49.434;8.684;2023-11-25T01:23:49;3.00;;;1.50;;
24897;SDS011;12957;49.434;8.684;2023-11-25T01:26:15;4.17;;;1.50;;
24897;SDS011;12957;49.434;8.684;2023-11-25T01:28:40;4.40;;;1.50;;
24897;SDS011;12957;49.434;8.684;2023-11-25T01:31:07;5.93;;;1.40;;
24897;SDS011;12957;49.434;8.684;2023-11-25T01:33:35;2.23;;;1.30;;
24897;SDS011;12957;49.434;8.684;2023-11-25T01:36:01;4.63;;;1.60;;
24897;SDS011;12957;49.434;8.684;2023-11-25T01:38:27;4.20;;;1.63;;
24897;SDS011;12957;49.434;8.684;2023-11-25T01:40:53;3.67;;;1.40;;
24897;SDS011;12957;49.434;8.684;2023-11-25T01:43:20;4.73;;;1.60;;
24897;SDS011;12957;49.434;8.684;2023-11-25T01:45:48;4.43;;;1.40;;
24897;SDS011;12957;49.434;8.684;2023-11-25T01:48:15;4.33;;;1.50;;
24897;SDS011;12957;49.434;8.684;2023-11-25T01:50:41;5.80;;;1.90;;
24897;SDS011;12957;49.434;8.684;2023-11-25T01:53:07;3.20;;;1.73;;
24897;SDS011;12957;49.434;8.684;2023-11-25T01:55:33;2.83;;;1.20;;
24897;SDS011;12957;49.434;8.684;2023-11-25T01:57:59;1.57;;;1.47;;
24897;SDS011;12957;49.434;8.684;2023-11-25T02:00:24;3.10;;;1.70;;
24897;SDS011;12957;49.434;8.684;2023-11-25T02:02:50;4.10;;;1.50;;
24897;SDS011;12957;49.434;8.684;2023-11-25T02:05:16;4.97;;;1.50;;
24897;SDS011;12957;49.434;8.684;2023-11-25T02:07:41;4.83;;;1.33;;
24897;SDS011;12957;49.434;8.684;2023-11-25T02:10:07;10.10;;;1.50;;
24897;SDS011;12957;49.434;8.684;2023-11-25T02:12:39;4.93;;;1.87;;
24897;SDS011;12957;49.434;8.684;2023-11-25T02:15:05;7.17;;;1.73;;
24897;SDS011;12957;49.434;8.684;2023-11-25T02:17:36;5.20;;;1.47;;
24897;SDS011;12957;49.434;8.684;2023-11-25T02:20:05;8.27;;;1.90;;
24897;SDS011;12957;49.434;8.684;2023-11-25T02:22:33;4.37;;;1.60;;
24897;SDS011;12957;49.434;8.684;2023-11-25T02:24:59;5.70;;;1.77;;
24897;SDS011;12957;49.434;8.684;2023-11-25T02:27:24;2.47;;;1.60;;
24897;SDS011;12957;49.434;8.684;2023-11-25T02:29:50;4.50;;;1.50;;
24897;SDS011;12957;49.434;8.684;2023-11-25T02:32:17;6.33;;;1.53;;
24897;SDS011;12957;49.434;8.684;2023-11-25T02:34:42;5.57;;;1.83;;
24897;SDS011;12957;49.434;8.684;2023-11-25T02:37:07;4.93;;;1.60;;
24897;SDS011;12957;49.434;8.684;2023-11-25T02:39:33;3.63;;;1.60;;
24897;SDS011;12957;49.434;8.684;2023-11-25T02:41:59;6.07;;;1.90;;
24897;SDS011;12957;49.434;8.684;2023-11-25T02:44:24;6.73;;;1.67;;
24897;SDS011;12957;49.434;8.684;2023-11-25T02:46:52;7.67;;;1.90;;
24897;SDS011;12957;49.434;8.684;2023-11-25T02:49:18;3.53;;;1.80;;
24897;SDS011;12957;49.434;8.684;2023-11-25T02:51:49;4.63;;;1.80;;
24897;SDS011;12957;49.434;8.684;2023-11-25T02:54:20;3.63;;;1.80;;
24897;SDS011;12957;49.434;8.684;2023-11-25T02:56:46;6.67;;;1.80;;
24897;SDS011;12957;49.434;8.684;2023-11-25T02:59:11;2.57;;;1.63;;
24897;SDS011;12957;49.434;8.684;2023-11-25T03:01:38;4.97;;;1.90;;
24897;SDS011;12957;49.434;8.684;2023-11-25T03:04:07;6.23;;;1.80;;
24897;SDS011;12957;49.434;8.684;2023-11-25T03:06:36;5.10;;;1.90;;
24897;SDS011;12957;49.434;8.684;2023-11-25T03:09:02;7.60;;;1.80;;
24897;SDS011;12957;49.434;8.684;2023-11-25T03:11:31;3.17;;;1.77;;
24897;SDS011;12957;49.434;8.684;2023-11-25T03:13:56;2.47;;;1.87;;
24897;SDS011;12957;49.434;8.684;2023-11-25T03:16:22;4.57;;;2.10;;
24897;SDS011;12957;49.434;8.684;2023-11-25T03:18:49;3.13;;;1.90;;
24897;SDS011;12957;49.434;8.684;2023-11-25T03:21:18;5.60;;;1.73;;
24897;SDS011;12957;49.434;8.684;2023-11-25T03:23:45;3.83;;;1.87;;
24897;SDS011;12957;49.434;8.684;2023-11-25T03:26:12;6.80;;;2.00;;
24897;SDS011;12957;49.434;8.684;2023-11-25T03:28:37;5.30;;;2.00;;
24897;SDS011;12957;49.434;8.684;2023-11-25T03:31:03;5.70;;;1.87;;
24897;SDS011;12957;49.434;8.684;2023-11-25T03:33:30;4.73;;;2.00;;
24897;SDS011;12957;49.434;8.684;2023-11-25T03:35:55;5.43;;;2.00;;
24897;SDS011;12957;49.434;8.684;2023-11-25T03:38:21;7.73;;;2.07;;
24897;SDS011;12957;49.434;8.684;2023-11-25T03:40:47;4.03;;;1.73;;
24897;SDS011;12957;49.434;8.684;2023-11-25T03:43:13;4.90;;;1.90;;
24897;SDS011;12957;49.434;8.684;2023-11-25T03:45:39;7.30;;;2.23;;
24897;SDS011;12957;49.434;8.684;2023-11-25T03:48:05;6.20;;;1.93;;
24897;SDS011;12957;49.434;8.684;2023-11-25T03:50:31;7.40;;;2.17;;
24897;SDS011;12957;49.434;8.684;2023-11-25T03:52:59;5.97;;;1.90;;
24897;SDS011;12957;49.434;8.684;2023-11-25T03:55:26;4.97;;;2.03;;
24897;SDS011;12957;49.434;8.684;2023-11-25T03:57:52;4.07;;;1.90;;
24897;SDS011;12957;49.434;8.684;2023-11-25T04:00:17;7.53;;;2.37;;
24897;SDS011;12957;49.434;8.684;2023-11-25T04:02:46;7.80;;;2.27;;
24897;SDS011;12957;49.434;8.684;2023-11-25T04:05:12;6.03;;;2.20;;
24897;SDS011;12957;49.434;8.684;2023-11-25T04:07:38;6.87;;;2.73;;
24897;SDS011;12957;49.434;8.684;2023-11-25T04:10:04;7.90;;;2.33;;
24897;SDS011;12957;49.434;8.684;2023-11-25T04:12:38;6.03;;;2.13;;
24897;SDS011;12957;49.434;8.684;2023-11-25T04:15:05;7.30;;;2.00;;
24897;SDS011;12957;49.434;8.684;2023-11-25T04:17:31;5.60;;;2.20;;
24897;SDS011;12957;49.434;8.684;2023-11-25T04:19:56;4.77;;;2.00;;
24897;SDS011;12957;49.434;8.684;2023-11-25T04:22:22;6.17;;;1.97;;
24897;SDS011;12957;49.434;8.684;2023-11-25T04:24:49;7.93;;;2.33;;
24897;SDS011;12957;49.434;8.684;2023-11-25T04:27:14;8.23;;;2.27;;
24897;SDS011;12957;49.434;8.684;2023-11-25T04:29:41;14.00;;;2.73;;
24897;SDS011;12957;49.434;8.684;2023-11-25T04:32:07;4.57;;;2.23;;
24897;SDS011;12957;49.434;8.684;2023-11-25T04:34:34;12.20;;;2.20;;
24897;SDS011;12957;49.434;8.684;2023-11-25T04:37:01;4.17;;;1.70;;
24897;SDS011;12957;49.434;8.684;2023-11-25T04:39:27;6.33;;;1.90;;
24897;SDS011;12957;49.434;8.684;2023-11-25T04:41:53;5.63;;;1.87;;
24897;SDS011;12957;49.434;8.684;2023-11-25T04:44:18;3.10;;;1.80;;
24897;SDS011;12957;49.434;8.684;2023-11-25T04:46:44;5.23;;;2.10;;
24897;SDS011;12957;49.434;8.684;2023-11-25T04:49:11;7.37;;;1.77;;
24897;SDS011;12957;49.434;8.684;2023-11-25T04:51:37;6.83;;;1.80;;
24897;SDS011;12957;49.434;8.684;2023-11-25T04:54:02;4.73;;;1.70;;
24897;SDS011;12957;49.434;8.684;2023-11-25T04:56:28;6.60;;;2.20;;
24897;SDS011;12957;49.434;8.684;2023-11-25T04:58:53;6.63;;;1.70;;
24897;SDS011;12957;49.434;8.684;2023-11-25T05:01:19;3.67;;;1.60;;
24897;SDS011;12957;49.434;8.684;2023-11-25T05:03:44;4.70;;;2.00;;
24897;SDS011;12957;49.434;8.684;2023-11-25T05:06:10;4.57;;;1.80;;
24897;SDS011;12957;49.434;8.684;2023-11-25T05:08:36;4.57;;;2.30;;
24897;SDS011;12957;49.434;8.684;2023-11-25T05:11:01;2.27;;;1.63;;
24897;SDS011;12957;49.434;8.684;2023-11-25T05:13:27;2.37;;;1.80;;
24897;SDS011;12957;49.434;8.684;2023-11-25T05:15:52;8.40;;;2.13;;
24897;SDS011;12957;49.434;8.684;2023-11-25T05:18:18;3.80;;;2.23;;
24897;SDS011;12957;49.434;8.684;2023-11-25T05:20:44;7.80;;;2.50;;
24897;SDS011;12957;49.434;8.684;2023-11-25T05:23:09;5.00;;;2.07;;
24897;SDS011;12957;49.434;8.684;2023-11-25T05:25:35;7.07;;;2.03;;
24897;SDS011;12957;49.434;8.684;2023-11-25T05:28:00;7.77;;;2.10;;
24897;SDS011;12957;49.434;8.684;2023-11-25T05:30:26;5.73;;;2.03;;
24897;SDS011;12957;49.434;8.684;2023-11-25T05:32:51;3.97;;;1.93;;
24897;SDS011;12957;49.434;8.684;2023-11-25T05:35:17;5.53;;;2.10;;
24897;SDS011;12957;49.434;8.684;2023-11-25T05:37:42;3.67;;;2.10;;
24897;SDS011;12957;49.434;8.684;2023-11-25T05:40:08;9.83;;;2.30;;
24897;SDS011;12957;49.434;8.684;2023-11-25T05:42:37;5.57;;;2.13;;
24897;SDS011;12957;49.434;8.684;2023-11-25T05:45:06;3.73;;;2.10;;
24897;SDS011;12957;49.434;8.684;2023-11-25T05:47:34;5.60;;;1.90;;
24897;SDS011;12957;49.434;8.684;2023-11-25T05:49:59;6.50;;;2.23;;
24897;SDS011;12957;49.434;8.684;2023-11-25T05:52:25;11.10;;;2.33;;
24897;SDS011;12957;49.434;8.684;2023-11-25T05:54:51;3.90;;;2.37;;
24897;SDS011;12957;49.434;8.684;2023-11-25T05:57:16;6.33;;;2.17;;
24897;SDS011;12957;49.434;8.684;2023-11-25T05:59:42;4.10;;;2.50;;
24897;SDS011;12957;49.434;8.684;2023-11-25T06:02:08;10.90;;;2.83;;
24897;SDS011;12957;49.434;8.684;2023-11-25T06:04:33;7.00;;;2.40;;
24897;SDS011;12957;49.434;8.684;2023-11-25T06:06:59;5.10;;;2.20;;
24897;SDS011;12957;49.434;8.684;2023-11-25T06:09:24;3.03;;;2.20;;
24897;SDS011;12957;49.434;8.684;2023-11-25T06:11:50;6.23;;;2.27;;
24897;SDS011;12957;49.434;8.684;2023-11-25T06:14:16;5.17;;;2.20;;
24897;SDS011;12957;49.434;8.684;2023-11-25T06:16:44;3.77;;;2.20;;
24897;SDS011;12957;49.434;8.684;2023-11-25T06:19:10;8.57;;;2.00;;
24897;SDS011;12957;49.434;8.684;2023-11-25T06:21:36;3.57;;;1.87;;
24897;SDS011;12957;49.434;8.684;2023-11-25T06:24:03;8.57;;;2.77;;
24897;SDS011;12957;49.434;8.684;2023-11-25T06:26:29;7.57;;;2.00;;
24897;SDS011;12957;49.434;8.684;2023-11-25T06:28:55;2.83;;;1.80;;
24897;SDS011;12957;49.434;8.684;2023-11-25T06:31:20;7.73;;;2.53;;
24897;SDS011;12957;49.434;8.684;2023-11-25T06:33:46;11.20;;;2.37;;
24897;SDS011;12957;49.434;8.684;2023-11-25T06:36:12;3.33;;;1.87;;
24897;SDS011;12957;49.434;8.684;2023-11-25T06:38:38;3.70;;;2.00;;
24897;SDS011;12957;49.434;8.684;2023-11-25T06:41:05;3.93;;;1.90;;
24897;SDS011;12957;49.434;8.684;2023-11-25T06:43:32;7.07;;;2.07;;
24897;SDS011;12957;49.434;8.684;2023-11-25T06:45:57;5.80;;;2.10;;
24897;SDS011;12957;49.434;8.684;2023-11-25T06:48:24;6.43;;;2.20;;
24897;SDS011;12957;49.434;8.684;2023-11-25T06:50:52;6.67;;;2.17;;
24897;SDS011;12957;49.434;8.684;2023-11-25T06:53:18;9.77;;;2.10;;
24897;SDS011;12957;49.434;8.684;2023-11-25T06:55:43;6.60;;;1.90;;
24897;SDS011;12957;49.434;8.684;2023-11-25T06:58:10;8.27;;;2.07;;
24897;SDS011;12957;49.434;8.684;2023-11-25T07:00:40;2.17;;;1.80;;
24897;SDS011;12957;49.434;8.684;2023-11-25T07:03:05;6.97;;;2.20;;
24897;SDS011;12957;49.434;8.684;2023-11-25T07:05:32;7.97;;;2.00;;
24897;SDS011;12957;49.434;8.684;2023-11-25T07:07:58;5.37;;;1.97;;
24897;SDS011;12957;49.434;8.684;2023-11-25T07:10:23;4.10;;;1.93;;
24897;SDS011;12957;49.434;8.684;2023-11-25T07:12:50;6.03;;;2.03;;
24897;SDS011;12957;49.434;8.684;2023-11-25T07:15:15;7.80;;;2.03;;
24897;SDS011;12957;49.434;8.684;2023-11-25T07:17:41;5.73;;;1.90;;
24897;SDS011;12957;49.434;8.684;2023-11-25T07:20:07;9.47;;;2.27;;
24897;SDS011;12957;49.434;8.684;2023-11-25T07:22:41;4.23;;;1.90;;
24897;SDS011;12957;49.434;8.684;2023-11-25T07:25:06;4.20;;;1.90;;
24897;SDS011;12957;49.434;8.684;2023-11-25T07:27:37;5.37;;;2.30;;
24897;SDS011;12957;49.434;8.684;2023-11-25T07:30:06;7.07;;;2.13;;
24897;SDS011;12957;49.434;8.684;2023-11-25T07:32:33;8.70;;;2.23;;
24897;SDS011;12957;49.434;8.684;2023-11-25T07:35:00;5.30;;;2.00;;
24897;SDS011;12957;49.434;8.684;2023-11-25T07:37:25;3.03;;;1.80;;
24897;SDS011;12957;49.434;8.684;2023-11-25T07:39:51;8.00;;;2.30;;
24897;SDS011;12957;49.434;8.684;2023-11-25T07:42:18;8.20;;;3.37;;
24897;SDS011;12957;49.434;8.684;2023-11-25T07:44:43;5.73;;;2.83;;
24897;SDS011;12957;49.434;8.684;2023-11-25T07:47:09;9.53;;;2.40;;
24897;SDS011;12957;49.434;8.684;2023-11-25T07:49:34;7.70;;;3.00;;
24897;SDS011;12957;49.434;8.684;2023-11-25T07:52:00;5.03;;;2.70;;
24897;SDS011;12957;49.434;8.684;2023-11-25T07:54:26;6.67;;;2.80;;
24897;SDS011;12957;49.434;8.684;2023-11-25T07:56:51;7.27;;;2.70;;
24897;SDS011;12957;49.434;8.684;2023-11-25T07:59:16;7.37;;;2.63;;
24897;SDS011;12957;49.434;8.684;2023-11-25T08:01:43;6.60;;;2.40;;
24897;SDS011;12957;49.434;8.684;2023-11-25T08:04:09;8.13;;;2.23;;
24897;SDS011;12957;49.434;8.684;2023-11-25T08:06:34;5.83;;;2.17;;
24897;SDS011;12957;49.434;8.684;2023-11-25T08:09:01;3.73;;;1.90;;
24897;SDS011;12957;49.434;8.684;2023-11-25T08:11:27;4.63;;;2.03;;
24897;SDS011;12957;49.434;8.684;2023-11-25T08:13:54;5.23;;;2.00;;
24897;SDS011;12957;49.434;8.684;2023-11-25T08:16:20;5.13;;;2.10;;
24897;SDS011;12957;49.434;8.684;2023-11-25T08:18:46;6.87;;;1.93;;
24897;SDS011;12957;49.434;8.684;2023-11-25T08:21:12;4.77;;;1.87;;
24897;SDS011;12957;49.434;8.684;2023-11-25T08:23:40;6.07;;;1.70;;
24897;SDS011;12957;49.434;8.684;2023-11-25T08:26:22;5.33;;;2.17;;
24897;SDS011;12957;49.434;8.684;2023-11-25T08:28:49;5.83;;;1.93;;
24897;SDS011;12957;49.434;8.684;2023-11-25T08:31:15;10.13;;;1.90;;
24897;SDS011;12957;49.434;8.684;2023-11-25T08:33:40;5.33;;;1.60;;
24897;SDS011;12957;49.434;8.684;2023-11-25T08:36:06;3.30;;;1.57;;
24897;SDS011;12957;49.434;8.684;2023-11-25T08:38:33;3.80;;;1.77;;
24897;SDS011;12957;49.434;8.684;2023-11-25T08:40:59;5.53;;;2.13;;
24897;SDS011;12957;49.434;8.684;2023-11-25T08:43:25;5.57;;;1.60;;
24897;SDS011;12957;49.434;8.684;2023-11-25T08:45:52;6.03;;;1.60;;
24897;SDS011;12957;49.434;8.684;2023-11-25T08:48:18;3.43;;;1.33;;
24897;SDS011;12957;49.434;8.684;2023-11-25T08:50:44;5.10;;;1.53;;
24897;SDS011;12957;49.434;8.684;2023-11-25T08:53:10;3.23;;;1.70;;
24897;SDS011;12957;49.434;8.684;2023-11-25T08:55:35;3.63;;;1.57;;
24897;SDS011;12957;49.434;8.684;2023-11-25T08:58:01;5.13;;;1.50;;
24897;SDS011;12957;49.434;8.684;2023-11-25T09:00:28;4.83;;;1.70;;
24897;SDS011;12957;49.434;8.684;2023-11-25T09:02:54;9.67;;;1.90;;
24897;SDS011;12957;49.434;8.684;2023-11-25T09:05:22;5.63;;;2.03;;
24897;SDS011;12957;49.434;8.684;2023-11-25T09:07:53;4.20;;;1.47;;
24897;SDS011;12957;49.434;8.684;2023-11-25T09:10:20;9.73;;;1.87;;
24897;SDS011;12957;49.434;8.684;2023-11-25T09:12:47;5.90;;;1.60;;
24897;SDS011;12957;49.434;8.684;2023-11-25T09:15:12;3.87;;;1.30;;
24897;SDS011;12957;49.434;8.684;2023-11-25T09:17:41;8.17;;;2.40;;
24897;SDS011;12957;49.434;8.684;2023-11-25T09:20:07;9.47;;;2.33;;
24897;SDS011;12957;49.434;8.684;2023-11-25T09:22:37;3.07;;;1.60;;
24897;SDS011;12957;49.434;8.684;2023-11-25T09:25:03;10.67;;;2.13;;
24897;SDS011;12957;49.434;8.684;2023-11-25T09:27:29;10.43;;;2.17;;
24897;SDS011;12957;49.434;8.684;2023-11-25T09:29:55;8.33;;;1.87;;
24897;SDS011;12957;49.434;8.684;2023-11-25T09:32:21;7.80;;;2.20;;
24897;SDS011;12957;49.434;8.684;2023-11-25T09:34:47;6.03;;;1.80;;
24897;SDS011;12957;49.434;8.684;2023-11-25T09:37:14;6.23;;;2.10;;
24897;SDS011;12957;49.434;8.684;2023-11-25T09:39:40;9.00;;;2.00;;
24897;SDS011;12957;49.434;8.684;2023-11-25T09:42:06;6.17;;;1.63;;
24897;SDS011;12957;49.434;8.684;2023-11-25T09:44:32;4.77;;;1.50;;
24897;SDS011;12957;49.434;8.684;2023-11-25T09:46:58;10.63;;;2.70;;
24897;SDS011;12957;49.434;8.684;2023-11-25T09:49:23;8.47;;;2.23;;
24897;SDS011;12957;49.434;8.684;2023-11-25T09:51:49;7.37;;;2.30;;
24897;SDS011;12957;49.434;8.684;2023-11-25T09:54:20;7.40;;;1.80;;
24897;SDS011;12957;49.434;8.684;2023-11-25T09:56:49;14.40;;;2.30;;
24897;SDS011;12957;49.434;8.684;2023-11-25T09:59:17;6.43;;;2.13;;
24897;SDS011;12957;49.434;8.684;2023-11-25T10:01:45;5.20;;;1.97;;
24897;SDS011;12957;49.434;8.684;2023-11-25T10:04:11;13.57;;;2.80;;
24897;SDS011;12957;49.434;8.684;2023-11-25T10:06:37;11.27;;;2.27;;
24897;SDS011;12957;49.434;8.684;2023-11-25T10:09:03;6.13;;;2.13;;
24897;SDS011;12957;49.434;8.684;2023-11-25T10:11:31;13.47;;;2.17;;
24897;SDS011;12957;49.434;8.684;2023-11-25T10:13:57;10.53;;;2.17;;
24897;SDS011;12957;49.434;8.684;2023-11-25T10:16:26;8.17;;;2.20;;
24897;SDS011;12957;49.434;8.684;2023-11-25T10:18:53;11.30;;;2.57;;
24897;SDS011;12957;49.434;8.684;2023-11-25T10:21:18;5.87;;;2.10;;
24897;SDS011;12957;49.434;8.684;2023-11-25T10:23:44;6.23;;;1.67;;
24897;SDS011;12957;49.434;8.684;2023-11-25T10:26:10;10.17;;;2.07;;
24897;SDS011;12957;49.434;8.684;2023-11-25T10:28:36;10.93;;;2.90;;
24897;SDS011;12957;49.434;8.684;2023-11-25T10:31:02;12.47;;;2.63;;
24897;SDS011;12957;49.434;8.684;2023-11-25T10:33:35;12.27;;;2.50;;
24897;SDS011;12957;49.434;8.684;2023-11-25T10:36:02;12.40;;;2.73;;
24897;SDS011;12957;49.434;8.684;2023-11-25T10:38:30;11.90;;;3.23;;
24897;SDS011;12957;49.434;8.684;2023-11-25T10:41:00;10.40;;;2.80;;
24897;SDS011;12957;49.434;8.684;2023-11-25T10:43:26;12.50;;;3.00;;
24897;SDS011;12957;49.434;8.684;2023-11-25T10:46:08;10.60;;;2.50;;
24897;SDS011;12957;49.434;8.684;2023-11-25T10:48:35;13.93;;;2.47;;
24897;SDS011;12957;49.434;8.684;2023-11-25T10:51:02;11.47;;;2.50;;
24897;SDS011;12957;49.434;8.684;2023-11-25T10:53:29;11.50;;;2.33;;
24897;SDS011;12957;49.434;8.684;2023-11-25T10:55:55;9.80;;;2.50;;
24897;SDS011;12957;49.434;8.684;2023-11-25T10:58:21;12.27;;;2.17;;
24897;SDS011;12957;49.434;8.684;2023-11-25T11:00:47;11.63;;;2.70;;
24897;SDS011;12957;49.434;8.684;2023-11-25T11:03:13;11.00;;;2.53;;
24897;SDS011;12957;49.434;8.684;2023-11-25T11:08:07;12.63;;;3.20;;
24897;SDS011;12957;49.434;8.684;2023-11-25T11:13:29;12.40;;;2.80;;
24897;SDS011;12957;49.434;8.684;2023-11-25T11:15:57;10.13;;;3.33;;
24897;SDS011;12957;49.434;8.684;2023-11-25T11:18:28;9.60;;;2.90;;
24897;SDS011;12957;49.434;8.684;2023-11-25T11:21:01;10.70;;;2.63;;
24897;SDS011;12957;49.434;8.684;2023-11-25T11:23:27;9.77;;;3.50;;
24897;SDS011;12957;49.434;8.684;2023-11-25T11:26:02;10.70;;;3.47;;
24897;SDS011;12957;49.434;8.684;2023-11-25T11:32:00;15.10;;;3.83;;
24897;SDS011;12957;49.434;8.684;2023-11-25T11:34:27;16.83;;;4.43;;
24897;SDS011;12957;49.434;8.684;2023-11-25T11:36:53;15.90;;;3.50;;
24897;SDS011;12957;49.434;8.684;2023-11-25T11:39:39;9.47;;;2.93;;
24897;SDS011;12957;49.434;8.684;2023-11-25T11:44:54;15.77;;;2.40;;
24897;SDS011;12957;49.434;8.684;2023-11-25T11:47:45;11.07;;;2.60;;
24897;SDS011;12957;49.434;8.684;2023-11-25T11:50:27;13.50;;;2.87;;
24897;SDS011;12957;49.434;8.684;2023-11-25T11:58:07;10.70;;;2.47;;
24897;SDS011;12957;49.434;8.684;2023-11-25T12:00:46;12.87;;;2.57;;
24897;SDS011;12957;49.434;8.684;2023-11-25T12:03:12;13.00;;;2.53;;
24897;SDS011;12957;49.434;8.684;2023-11-25T12:05:38;12.77;;;2.97;;
24897;SDS011;12957;49.434;8.684;2023-11-25T12:08:04;10.90;;;2.90;;
24897;SDS011;12957;49.434;8.684;2023-11-25T12:10:33;11.57;;;3.00;;
24897;SDS011;12957;49.434;8.684;2023-11-25T12:12:59;17.03;;;2.87;;
24897;SDS011;12957;49.434;8.684;2023-11-25T12:15:24;18.90;;;3.37;;
24897;SDS011;12957;49.434;8.684;2023-11-25T12:17:50;14.30;;;2.87;;
24897;SDS011;12957;49.434;8.684;2023-11-25T12:20:18;9.90;;;3.00;;
24897;SDS011;12957;49.434;8.684;2023-11-25T12:22:43;9.10;;;2.83;;
24897;SDS011;12957;49.434;8.684;2023-11-25T12:25:10;14.13;;;3.10;;
24897;SDS011;12957;49.434;8.684;2023-11-25T12:27:40;11.03;;;2.90;;
24897;SDS011;12957;49.434;8.684;2023-11-25T12:30:10;14.97;;;2.90;;
24897;SDS011;12957;49.434;8.684;2023-11-25T12:32:36;17.63;;;3.73;;
24897;SDS011;12957;49.434;8.684;2023-11-25T12:35:02;10.10;;;2.87;;
24897;SDS011;12957;49.434;8.684;2023-11-25T12:37:29;12.97;;;3.23;;
24897;SDS011;12957;49.434;8.684;2023-11-25T12:39:55;15.10;;;3.20;;
24897;SDS011;12957;49.434;8.684;2023-11-25T12:42:23;8.50;;;3.03;;
24897;SDS011;12957;49.434;8.684;2023-11-25T12:44:49;12.37;;;3.20;;
24897;SDS011;12957;49.434;8.684;2023-11-25T12:47:15;13.43;;;2.97;;
24897;SDS011;12957;49.434;8.684;2023-11-25T12:49:41;11.77;;;3.03;;
24897;SDS011;12957;49.434;8.684;2023-11-25T12:52:29;10.20;;;3.33;;
24897;SDS011;12957;49.434;8.684;2023-11-25T12:54:55;13.93;;;3.93;;
24897;SDS011;12957;49.434;8.684;2023-11-25T12:57:24;13.10;;;3.53;;
24897;SDS011;12957;49.434;8.684;2023-11-25T12:59:51;16.13;;;3.30;;
24897;SDS011;12957;49.434;8.684;2023-11-25T13:02:16;12.97;;;3.03;;
24897;SDS011;12957;49.434;8.684;2023-11-25T13:04:43;12.23;;;2.73;;
24897;SDS011;12957;49.434;8.684;2023-11-25T13:07:33;10.37;;;2.70;;
24897;SDS011;12957;49.434;8.684;2023-11-25T13:09:58;12.40;;;3.20;;
24897;SDS011;12957;49.434;8.684;2023-11-25T13:12:23;7.37;;;2.60;;
24897;SDS011;12957;49.434;8.684;2023-11-25T13:14:49;12.07;;;3.07;;
24897;SDS011;12957;49.434;8.684;2023-11-25T13:17:15;9.93;;;2.70;;
24897;SDS011;12957;49.434;8.684;2023-11-25T13:19:41;10.53;;;2.40;;
24897;SDS011;12957;49.434;8.684;2023-11-25T13:22:08;6.57;;;2.63;;
24897;SDS011;12957;49.434;8.684;2023-11-25T13:24:35;6.57;;;2.53;;
24897;SDS011;12957;49.434;8.684;2023-11-25T13:27:01;9.63;;;2.80;;
24897;SDS011;12957;49.434;8.684;2023-11-25T13:29:29;7.80;;;3.20;;
24897;SDS011;12957;49.434;8.684;2023-11-25T13:31:54;5.67;;;2.57;;
24897;SDS011;12957;49.434;8.684;2023-11-25T13:34:21;10.13;;;2.43;;
24897;SDS011;12957;49.434;8.684;2023-11-25T13:36:47;12.37;;;3.10;;
24897;SDS011;12957;49.434;8.684;2023-11-25T13:39:12;7.53;;;2.67;;
24897;SDS011;12957;49.434;8.684;2023-11-25T13:41:47;7.77;;;2.60;;
24897;SDS011;12957;49.434;8.684;2023-11-25T13:44:13;9.23;;;2.30;;
24897;SDS011;12957;49.434;8.684;2023-11-25T13:46:40;5.30;;;2.27;;
24897;SDS011;12957;49.434;8.684;2023-11-25T13:49:05;5.10;;;2.60;;
24897;SDS011;12957;49.434;8.684;2023-11-25T13:51:31;11.03;;;3.30;;
24897;SDS011;12957;49.434;8.684;2023-11-25T13:53:57;9.23;;;2.60;;
24897;SDS011;12957;49.434;8.684;2023-11-25T13:56:23;6.90;;;2.73;;
24897;SDS011;12957;49.434;8.684;2023-11-25T13:58:52;3.03;;;2.27;;
24897;SDS011;12957;49.434;8.684;2023-11-25T14:01:17;9.77;;;4.23;;
24897;SDS011;12957;49.434;8.684;2023-11-25T14:03:44;10.30;;;4.27;;
24897;SDS011;12957;49.434;8.684;2023-11-25T14:06:10;8.30;;;3.60;;
24897;SDS011;12957;49.434;8.684;2023-11-25T14:08:35;9.53;;;2.93;;
24897;SDS011;12957;49.434;8.684;2023-11-25T14:11:02;7.47;;;2.70;;
24897;SDS011;12957;49.434;8.684;2023-11-25T14:13:30;11.13;;;3.83;;
24897;SDS011;12957;49.434;8.684;2023-11-25T14:15:56;8.07;;;3.10;;
24897;SDS011;12957;49.434;8.684;2023-11-25T14:18:24;8.33;;;3.60;;
24897;SDS011;12957;49.434;8.684;2023-11-25T14:20:50;10.33;;;2.70;;
24897;SDS011;12957;49.434;8.684;2023-11-25T14:23:15;8.40;;;2.70;;
24897;SDS011;12957;49.434;8.684;2023-11-25T14:25:41;5.83;;;2.43;;
24897;SDS011;12957;49.434;8.684;2023-11-25T14:28:06;5.57;;;2.80;;
24897;SDS011;12957;49.434;8.684;2023-11-25T14:30:32;7.83;;;2.70;;
24897;SDS011;12957;49.434;8.684;2023-11-25T14:32:58;2.63;;;2.30;;
24897;SDS011;12957;49.434;8.684;2023-11-25T14:35:23;2.83;;;1.90;;
24897;SDS011;12957;49.434;8.684;2023-11-25T14:37:49;4.50;;;2.40;;
24897;SDS011;12957;49.434;8.684;2023-11-25T14:40:16;5.77;;;2.67;;
24897;SDS011;12957;49.434;8.684;2023-11-25T14:42:43;7.00;;;2.30;;
24897;SDS011;12957;49.434;8.684;2023-11-25T14:45:09;4.37;;;1.97;;
24897;SDS011;12957;49.434;8.684;2023-11-25T14:47:35;10.07;;;2.30;;
24897;SDS011;12957;49.434;8.684;2023-11-25T14:50:01;4.77;;;2.20;;
24897;SDS011;12957;49.434;8.684;2023-11-25T14:52:27;4.70;;;2.07;;
24897;SDS011;12957;49.434;8.684;2023-11-25T14:54:52;3.70;;;2.20;;
24897;SDS011;12957;49.434;8.684;2023-11-25T14:57:18;8.30;;;2.57;;
24897;SDS011;12957;49.434;8.684;2023-11-25T14:59:44;3.80;;;1.93;;